Time;durP1;ratioP1;P1;durP2;ratioP2;P2;SDS_P1;SDS_P2;PMS_P1;PMS_P2;Temp;Humidity;BMP_temperature;BMP_pressure;BME280_temperature;BME280_humidity;BME280_pressure;Samples;Min_cycle;Max_cycle;Signal;HPM_P1;HPM_P2
2023/07/15 00:00:54;;;;;;;;;8.40;8.40;;;;;24.56;51.68;98896.56;4968485;28;47008;-58
2023/07/15 00:03:20;;;;;;;;;8.20;7.00;;;;;24.57;51.28;98898.25;4967622;28;45471;-58
2023/07/15 00:05:47;;;;;;;;;8.00;7.25;;;;;24.56;51.40;98900.09;4974270;28;45468;-58
2023/07/15 00:08:13;;;;;;;;;6.60;6.00;;;;;24.55;50.95;98894.84;4967689;28;45538;-58
2023/07/15 00:10:44;;;;;;;;;6.80;6.80;;;;;24.52;51.92;98893.31;4974323;28;45617;-58
2023/07/15 00:13:15;;;;;;;;;9.20;9.20;;;;;24.47;52.29;98886.69;4968720;28;45525;-58
2023/07/15 00:15:42;;;;;;;;;6.40;6.40;;;;;24.44;52.91;98887.03;4969158;28;45389;-57
2023/07/15 00:18:09;;;;;;;;;7.00;7.00;;;;;24.39;53.30;98887.47;4966311;28;45415;-58
2023/07/15 00:20:35;;;;;;;;;7.60;7.60;;;;;24.39;54.07;98881.25;4967839;28;46617;-57
2023/07/15 00:23:01;;;;;;;;;8.60;8.60;;;;;24.33;53.43;98877.31;4967700;28;45402;-57
2023/07/15 00:25:27;;;;;;;;;9.00;7.00;;;;;24.29;54.02;98886.72;4982926;28;45477;-57
2023/07/15 00:27:52;;;;;;;;;6.00;6.00;;;;;24.25;54.58;98891.56;4972857;28;45654;-57
2023/07/15 00:30:19;;;;;;;;;7.00;7.00;;;;;24.24;54.39;98891.72;4973178;28;45436;-57
2023/07/15 00:32:47;;;;;;;;;8.40;7.00;;;;;24.20;54.89;98883.06;4972524;28;45399;-57
2023/07/15 00:35:28;;;;;;;;;12.25;12.25;;;;;24.16;55.33;98880.81;4967978;28;45434;-57
2023/07/15 00:37:54;;;;;;;;;10.00;9.00;;;;;24.12;55.94;98885.69;4974766;28;45514;-57
2023/07/15 00:40:20;;;;;;;;;8.20;8.00;;;;;24.07;56.75;98879.91;4972260;28;45489;-57
2023/07/15 00:43:22;;;;;;;;;12.25;11.25;;;;;24.02;57.12;98890.28;4973945;28;45324;-57
2023/07/15 00:46:23;;;;;;;;;11.75;9.00;;;;;24.00;56.78;98886.88;4974553;28;45398;-57
2023/07/15 00:49:00;;;;;;;;;6.75;6.75;;;;;23.97;57.56;98892.56;4970078;28;45535;-58
2023/07/15 00:51:28;;;;;;;;;9.50;8.00;;;;;23.95;57.93;98886.50;4976492;28;46395;-58
2023/07/15 00:53:54;;;;;;;;;9.60;9.00;;;;;23.95;57.44;98892.75;4971631;28;45660;-58
2023/07/15 00:56:21;;;;;;;;;8.75;7.75;;;;;23.93;57.48;98889.34;4977118;28;45523;-58
2023/07/15 00:58:48;;;;;;;;;8.00;7.75;;;;;23.93;57.58;98892.03;4972609;28;45355;-58
2023/07/15 01:01:14;;;;;;;;;8.00;8.00;;;;;23.90;57.69;98886.97;4976291;28;45525;-58
2023/07/15 01:03:40;;;;;;;;;10.75;10.50;;;;;23.91;57.63;98887.81;4970530;28;45848;-58
2023/07/15 01:06:06;;;;;;;;;9.25;9.25;;;;;23.95;57.17;98890.06;4976265;28;45430;-58
2023/07/15 01:08:31;;;;;;;;;9.75;9.75;;;;;23.99;56.78;98880.66;4974100;28;45543;-58
2023/07/15 01:10:57;;;;;;;;;10.00;10.00;;;;;23.98;55.39;98884.34;4976114;28;45648;-58
2023/07/15 01:13:22;;;;;;;;;9.25;8.75;;;;;23.97;55.14;98889.88;4975026;28;45724;-58
2023/07/15 01:15:47;;;;;;;;;7.00;7.00;;;;;23.97;54.83;98887.19;4975820;28;45420;-58
2023/07/15 01:18:13;;;;;;;;;7.75;7.75;;;;;23.98;54.54;98883.47;4974625;28;45583;-58
2023/07/15 01:20:39;;;;;;;;;8.25;8.25;;;;;23.99;54.40;98877.94;4972158;28;47272;-58
2023/07/15 01:23:04;;;;;;;;;11.75;10.25;;;;;23.99;54.12;98875.25;4971469;28;45383;-58
2023/07/15 01:25:30;;;;;;;;;7.50;7.25;;;;;24.01;53.59;98878.66;4976941;28;45717;-58
2023/07/15 01:27:55;;;;;;;;;8.00;8.00;;;;;24.00;53.35;98870.72;4975659;28;45372;-57
2023/07/15 01:30:21;;;;;;;;;12.50;10.25;;;;;23.99;53.49;98867.19;4970519;28;45557;-58
2023/07/15 01:32:47;;;;;;;;;8.40;7.40;;;;;23.98;53.56;98868.19;4974660;28;45399;-58
2023/07/15 01:35:12;;;;;;;;;10.50;10.00;;;;;23.96;53.72;98872.88;4969045;28;45375;-58
2023/07/15 01:37:37;;;;;;;;;7.00;7.00;;;;;23.92;53.70;98866.13;4974584;28;45430;-58
2023/07/15 01:40:05;;;;;;;;;9.50;7.50;;;;;23.90;53.77;98870.78;4969120;28;46334;-58
2023/07/15 01:42:31;;;;;;;;;9.00;9.00;;;;;23.86;53.34;98863.16;4974905;28;45620;-58
2023/07/15 01:44:56;;;;;;;;;7.00;7.00;;;;;23.79;54.10;98868.31;4973525;28;45561;-58
2023/07/15 01:47:21;;;;;;;;;10.00;9.25;;;;;23.74;54.47;98859.84;4973424;28;45457;-58
2023/07/15 01:49:47;;;;;;;;;11.25;8.50;;;;;23.74;54.46;98861.69;4973126;28;45505;-58
2023/07/15 01:52:13;;;;;;;;;11.00;9.75;;;;;23.71;54.75;98859.28;4973519;28;45425;-58
2023/07/15 01:54:39;;;;;;;;;8.25;8.00;;;;;23.70;54.78;98855.75;4972783;28;45434;-58
2023/07/15 01:57:04;;;;;;;;;0.25;0.00;;;;;23.67;55.13;98858.75;4975418;28;45547;-58
2023/07/15 01:59:30;;;;;;;;;8.75;8.25;;;;;23.64;55.21;98848.28;4973713;28;46110;-58
2023/07/15 02:01:57;;;;;;;;;10.00;9.75;;;;;23.62;55.43;98853.84;4975429;28;45371;-58
2023/07/15 02:04:22;;;;;;;;;9.75;9.75;;;;;23.63;55.67;98851.97;4972663;28;45607;-58
2023/07/15 02:06:48;;;;;;;;;9.50;9.50;;;;;23.63;55.46;98844.72;4974595;28;45453;-58
2023/07/15 02:09:14;;;;;;;;;9.00;8.25;;;;;23.65;55.73;98847.28;4971765;28;46315;-58
2023/07/15 02:11:40;;;;;;;;;5.75;5.50;;;;;23.67;55.92;98843.44;4975860;28;45710;-59
2023/07/15 02:14:05;;;;;;;;;9.25;9.25;;;;;23.72;55.48;98842.16;4972176;28;45513;-58
2023/07/15 02:16:31;;;;;;;;;9.25;8.50;;;;;23.72;55.20;98843.00;4974148;28;45509;-58
2023/07/15 02:18:56;;;;;;;;;8.50;8.50;;;;;23.72;55.15;98840.31;4973443;28;46124;-58
2023/07/15 02:21:25;;;;;;;;;10.00;8.00;;;;;23.69;55.48;98837.06;4975621;28;45420;-58
2023/07/15 02:23:52;;;;;;;;;8.00;8.00;;;;;23.69;54.94;98837.06;4972652;28;45398;-58
2023/07/15 02:26:18;;;;;;;;;7.25;7.25;;;;;23.64;55.28;98826.75;4975574;28;45544;-58
2023/07/15 02:28:43;;;;;;;;;10.50;10.00;;;;;23.59;54.94;98827.22;4971967;28;45440;-58
2023/07/15 02:31:09;;;;;;;;;10.00;10.00;;;;;23.54;55.42;98821.44;4975466;28;45419;-58
2023/07/15 02:33:34;;;;;;;;;11.00;8.75;;;;;23.51;55.65;98829.81;4969878;28;45398;-58
2023/07/15 02:36:00;;;;;;;;;8.25;8.00;;;;;23.48;55.87;98821.13;4975134;28;45596;-58
2023/07/15 02:38:25;;;;;;;;;9.00;8.25;;;;;23.45;55.92;98816.09;4968807;28;45568;-58
2023/07/15 02:40:51;;;;;;;;;11.25;8.25;;;;;23.41;55.87;98818.22;4975226;28;45455;-58
2023/07/15 02:43:19;;;;;;;;;10.00;10.00;;;;;23.39;56.13;98813.97;4972426;28;45565;-58
2023/07/15 02:45:47;;;;;;;;;9.75;8.25;;;;;23.33;56.88;98810.88;4975411;28;45620;-58
2023/07/15 02:48:12;;;;;;;;;8.00;8.00;;;;;23.30;56.52;98804.94;4972112;28;46040;-58
2023/07/15 02:50:38;;;;;;;;;7.00;7.00;;;;;23.26;57.10;98804.44;4971947;28;45377;-58
2023/07/15 02:53:03;;;;;;;;;9.25;7.50;;;;;23.26;56.73;98801.75;4970087;28;45781;-58
2023/07/15 02:55:30;;;;;;;;;9.00;9.00;;;;;23.23;56.87;98801.19;4975032;28;45477;-58
2023/07/15 02:57:55;;;;;;;;;9.00;8.50;;;;;23.22;57.01;98797.66;4972798;28;45751;-58
2023/07/15 03:00:22;;;;;;;;;10.25;10.25;;;;;23.21;56.97;98801.31;4971625;28;45489;-58
2023/07/15 03:02:47;;;;;;;;;9.00;9.00;;;;;23.19;57.46;98795.25;4973297;28;45560;-58
2023/07/15 03:05:13;;;;;;;;;9.00;9.00;;;;;23.19;56.85;98780.94;4970818;28;45528;-58
2023/07/15 03:07:44;;;;;;;;;10.50;10.00;;;;;23.15;57.04;98788.47;4970197;28;46700;-58
2023/07/15 03:10:14;;;;;;;;;14.60;10.80;;;;;23.13;56.97;98782.38;4970964;28;45445;-59
2023/07/15 03:12:42;;;;;;;;;12.00;10.00;;;;;23.12;56.58;98767.28;4972260;28;45478;-58
2023/07/15 03:15:09;;;;;;;;;11.00;10.00;;;;;23.09;56.61;98758.66;4973881;28;45513;-58
2023/07/15 03:17:38;;;;;;;;;9.75;9.00;;;;;23.06;56.86;98769.69;4972962;28;46244;-58
2023/07/15 03:20:20;;;;;;;;;8.80;8.80;;;;;23.02;57.23;98773.66;4974618;28;45466;-58
2023/07/15 03:22:47;;;;;;;;;10.75;10.50;;;;;23.00;57.17;98768.44;4971426;28;45415;-58
2023/07/15 03:25:14;;;;;;;;;9.50;9.50;;;;;23.01;56.98;98753.16;4973339;28;45520;-58
2023/07/15 03:27:40;;;;;;;;;10.00;9.50;;;;;22.99;57.23;98756.00;4972619;28;46155;-58
2023/07/15 03:30:07;;;;;;;;;9.60;9.00;;;;;22.98;56.96;98765.91;4973208;28;45374;-58
2023/07/15 03:32:35;;;;;;;;;8.75;8.75;;;;;22.98;56.36;98765.91;4972917;28;45327;-58
2023/07/15 03:35:01;;;;;;;;;9.00;7.25;;;;;22.96;57.02;98778.63;4972702;28;45534;-59
2023/07/15 03:37:26;;;;;;;;;9.00;9.00;;;;;22.88;59.68;98759.72;4972553;28;45587;-58
2023/07/15 03:39:52;;;;;;;;;9.75;9.00;;;;;22.76;59.59;98765.41;4969983;28;45313;-58
2023/07/15 03:42:17;;;;;;;;;14.00;10.00;;;;;22.63;59.60;98771.09;4973847;28;45330;-58
2023/07/15 03:44:43;;;;;;;;;8.00;7.00;;;;;22.54;60.63;98769.28;4972160;28;45470;-58
2023/07/15 03:47:08;;;;;;;;;10.00;10.00;;;;;22.43;60.32;98783.75;4973792;28;46265;-58
2023/07/15 03:49:33;;;;;;;;;9.00;8.75;;;;;22.41;60.58;98774.13;4968039;28;45445;-58
2023/07/15 03:51:59;;;;;;;;;8.50;8.50;;;;;22.36;60.45;98779.94;4974327;28;45515;-58
2023/07/15 03:54:24;;;;;;;;;9.00;7.50;;;;;22.32;61.06;98783.03;4964618;28;45493;-58
2023/07/15 03:56:49;;;;;;;;;10.75;8.25;;;;;22.29;61.67;98774.28;4968553;28;45368;-58
2023/07/15 03:59:15;;;;;;;;;7.50;7.50;;;;;22.25;61.19;98769.34;4967335;28;45427;-58
2023/07/15 04:01:40;;;;;;;;;10.00;10.00;;;;;22.23;60.75;98779.38;4974012;28;45462;-58
2023/07/15 04:04:08;;;;;;;;;9.75;8.75;;;;;22.21;62.02;98782.22;4967851;28;45446;-58
2023/07/15 04:06:34;;;;;;;;;11.00;10.25;;;;;22.19;62.31;98783.34;4968187;28;46207;-58
2023/07/15 04:09:00;;;;;;;;;9.00;8.20;;;;;22.17;63.03;98777.28;4968241;28;45502;-58
2023/07/15 04:11:26;;;;;;;;;12.25;10.25;;;;;22.14;62.46;98778.41;4974999;28;45493;-57
2023/07/15 04:13:51;;;;;;;;;8.25;8.25;;;;;22.11;63.23;98769.81;4971788;28;45416;-58
2023/07/15 04:16:17;;;;;;;;;9.50;9.00;;;;;22.10;62.70;98778.84;4973470;28;46260;-58
2023/07/15 04:18:42;;;;;;;;;8.50;8.25;;;;;22.11;63.17;98772.50;4973333;28;45466;-58
2023/07/15 04:21:08;;;;;;;;;8.50;8.00;;;;;22.18;63.56;98770.91;4975258;28;45713;-58
2023/07/15 04:23:33;;;;;;;;;9.00;8.25;;;;;22.24;63.15;98773.03;4973885;28;45537;-58
2023/07/15 04:25:59;;;;;;;;;9.75;8.00;;;;;22.23;63.08;98774.88;4975908;28;46606;-57
2023/07/15 04:28:24;;;;;;;;;10.25;9.00;;;;;22.22;63.23;98769.63;4974906;28;45434;-58
2023/07/15 04:30:50;;;;;;;;;10.00;8.25;;;;;22.19;63.53;98770.78;4976944;28;45578;-58
2023/07/15 04:33:16;;;;;;;;;9.75;9.50;;;;;22.21;63.23;98765.25;4972205;28;45571;-58
2023/07/15 04:35:43;;;;;;;;;9.00;8.50;;;;;22.20;63.49;98779.69;4977263;28;45605;-58
2023/07/15 04:38:09;;;;;;;;;9.20;9.20;;;;;22.24;63.61;98773.03;4975912;28;45311;-58
2023/07/15 04:40:34;;;;;;;;;8.00;8.00;;;;;22.27;63.42;98767.38;4971753;28;45516;-58
2023/07/15 04:43:00;;;;;;;;;12.75;9.25;;;;;22.33;63.60;98766.78;4975348;28;45453;-58
2023/07/15 04:45:26;;;;;;;;;11.00;9.75;;;;;22.38;63.75;98752.94;4976389;28;46004;-58
2023/07/15 04:47:51;;;;;;;;;9.00;9.00;;;;;22.37;63.23;98765.50;4973363;28;45429;-58
2023/07/15 04:50:17;;;;;;;;;9.00;8.25;;;;;22.42;62.91;98765.94;4975380;28;45480;-58
2023/07/15 04:52:42;;;;;;;;;9.50;9.50;;;;;22.48;62.77;98762.66;4974199;28;45572;-58
2023/07/15 04:55:09;;;;;;;;;8.25;8.00;;;;;22.56;62.67;98757.41;4973366;28;45425;-58
2023/07/15 04:57:34;;;;;;;;;10.00;9.80;;;;;22.63;60.54;98760.34;4973366;28;45533;-58
2023/07/15 04:59:59;;;;;;;;;9.00;9.00;;;;;22.68;59.52;98760.75;4972895;28;45469;-58
2023/07/15 05:02:25;;;;;;;;;10.00;10.00;;;;;22.71;59.02;98747.03;4975121;28;45561;-58
2023/07/15 05:04:50;;;;;;;;;10.00;10.00;;;;;22.73;58.45;98763.84;4972153;28;45656;-58
2023/07/15 05:07:15;;;;;;;;;15.00;10.25;;;;;22.75;58.19;98758.34;4975353;28;45373;-57
2023/07/15 05:09:42;;;;;;;;;11.50;10.75;;;;;22.76;58.03;98755.50;4974723;28;45755;-57
2023/07/15 05:12:10;;;;;;;;;7.50;7.50;;;;;22.78;57.72;98750.03;4976032;28;45568;-59
2023/07/15 05:14:36;;;;;;;;;10.50;10.50;;;;;22.82;57.34;98759.47;4971435;28;45608;-58
2023/07/15 05:17:02;;;;;;;;;8.75;8.75;;;;;22.86;57.81;98759.03;4976467;28;45398;-59
2023/07/15 05:19:27;;;;;;;;;10.75;10.75;;;;;22.91;58.16;98750.53;4974160;28;45413;-58
2023/07/15 05:21:53;;;;;;;;;10.25;10.25;;;;;22.94;57.52;98752.94;4976412;28;45494;-58
2023/07/15 05:24:18;;;;;;;;;12.00;12.00;;;;;22.96;57.69;98743.69;4974545;28;46062;-58
2023/07/15 05:26:44;;;;;;;;;10.00;10.00;;;;;22.97;57.62;98736.47;4976825;28;45443;-58
2023/07/15 05:29:09;;;;;;;;;10.25;10.25;;;;;22.93;57.49;98748.53;4970421;28;45415;-59
2023/07/15 05:31:35;;;;;;;;;12.75;10.00;;;;;22.92;57.53;98746.84;4974993;28;45369;-59
2023/07/15 05:34:00;;;;;;;;;9.50;8.50;;;;;22.92;58.06;98746.84;4970915;28;45486;-59
2023/07/15 05:36:25;;;;;;;;;10.25;9.50;;;;;22.90;58.85;98749.69;4976644;28;45336;-59
2023/07/15 05:38:51;;;;;;;;;10.00;10.00;;;;;22.95;59.03;98746.56;4974251;28;45398;-59
2023/07/15 05:41:16;;;;;;;;;13.00;11.00;;;;;22.97;58.26;98745.38;4976399;28;45612;-59
2023/07/15 05:43:42;;;;;;;;;11.00;10.00;;;;;23.02;58.27;98747.63;4973808;28;45408;-59
2023/07/15 05:46:07;;;;;;;;;10.25;10.25;;;;;23.08;58.19;98732.75;4976255;28;45383;-59
2023/07/15 05:48:33;;;;;;;;;10.00;9.50;;;;;23.13;57.56;98741.19;4970707;28;45374;-59
2023/07/15 05:50:58;;;;;;;;;9.75;8.25;;;;;23.18;57.42;98733.53;4974483;28;45681;-59
2023/07/15 05:53:23;;;;;;;;;11.00;11.00;;;;;23.25;56.46;98748.09;4970304;28;46205;-59
2023/07/15 05:55:49;;;;;;;;;14.50;12.00;;;;;23.31;56.67;98734.00;4976321;28;45403;-59
2023/07/15 05:58:14;;;;;;;;;13.00;10.00;;;;;23.41;55.86;98750.97;4972024;28;45578;-55
2023/07/15 06:00:40;;;;;;;;;13.25;11.00;;;;;23.50;55.54;98757.25;4975210;28;45455;-57
2023/07/15 06:03:06;;;;;;;;;10.00;9.00;;;;;23.52;57.34;98756.16;4969856;28;45475;-57
2023/07/15 06:05:31;;;;;;;;;9.25;9.25;;;;;23.36;57.32;98761.31;4974664;28;45351;-56
2023/07/15 06:07:57;;;;;;;;;11.00;11.00;;;;;23.23;57.85;98764.38;4970825;28;45703;-61
2023/07/15 06:10:22;;;;;;;;;9.50;8.75;;;;;23.14;58.75;98761.72;4974411;28;45470;-56
2023/07/15 06:12:48;;;;;;;;;8.50;8.50;;;;;23.03;59.98;98761.91;4971693;28;46335;-56
2023/07/15 06:15:13;;;;;;;;;11.50;9.00;;;;;22.97;61.14;98764.19;4974245;28;45553;-57
2023/07/15 06:17:39;;;;;;;;;10.00;8.75;;;;;22.96;61.61;98767.03;4973248;28;45446;-56
2023/07/15 06:20:05;;;;;;;;;7.50;7.50;;;;;22.93;61.61;98768.22;4973223;28;45449;-61
2023/07/15 06:22:31;;;;;;;;;10.00;10.00;;;;;22.92;62.42;98755.75;4973884;28;46232;-57
2023/07/15 06:24:57;;;;;;;;;11.00;9.25;;;;;22.89;62.78;98766.81;4974251;28;45452;-56
2023/07/15 06:27:23;;;;;;;;;12.25;10.25;;;;;22.91;62.08;98772.03;4973833;28;45522;-57
2023/07/15 06:29:49;;;;;;;;;9.75;8.25;;;;;22.94;63.63;98771.75;4974864;28;45458;-57
2023/07/15 06:32:14;;;;;;;;;9.50;8.25;;;;;22.96;64.87;98767.88;4974707;28;45410;-57
2023/07/15 06:34:40;;;;;;;;;8.25;6.75;;;;;22.97;64.77;98764.19;4972724;28;45544;-56
2023/07/15 06:37:06;;;;;;;;;11.00;9.00;;;;;23.02;65.04;98776.34;4974743;28;45348;-57
2023/07/15 06:39:31;;;;;;;;;9.75;9.50;;;;;23.08;64.95;98759.66;4971989;28;45460;-56
2023/07/15 06:41:57;;;;;;;;;10.00;10.00;;;;;23.17;64.97;98764.97;4975256;28;45362;-56
2023/07/15 06:44:24;;;;;;;;;11.00;11.00;;;;;23.24;65.26;98755.31;4971853;28;45479;-57
2023/07/15 06:46:49;;;;;;;;;10.60;10.40;;;;;23.29;64.70;98758.38;4972861;28;45396;-57
2023/07/15 06:49:15;;;;;;;;;12.00;10.00;;;;;23.31;65.59;98752.84;4968694;28;45504;-57
2023/07/15 06:51:40;;;;;;;;;10.25;10.25;;;;;23.35;64.80;98754.25;4974510;28;45402;-56
2023/07/15 06:54:06;;;;;;;;;9.50;9.25;;;;;23.37;65.05;98756.78;4969720;28;45376;-57
2023/07/15 06:56:31;;;;;;;;;10.75;10.00;;;;;23.42;64.68;98758.03;4971296;28;45383;-57
2023/07/15 06:58:56;;;;;;;;;12.00;11.50;;;;;23.48;65.02;98749.34;4970742;28;45493;-57
2023/07/15 07:01:22;;;;;;;;;14.75;10.75;;;;;23.54;64.85;98746.06;4974721;28;45395;-55
2023/07/15 07:03:47;;;;;;;;;10.00;9.75;;;;;23.62;64.76;98742.63;4972457;28;45359;-56
2023/07/15 07:06:13;;;;;;;;;10.75;9.25;;;;;23.68;64.28;98747.38;4974339;28;45514;-57
2023/07/15 07:08:38;;;;;;;;;11.00;10.00;;;;;23.77;65.06;98734.88;4972438;28;45463;-57
2023/07/15 07:11:03;;;;;;;;;8.75;8.75;;;;;23.87;64.45;98741.84;4974199;28;45483;-56
2023/07/15 07:13:29;;;;;;;;;9.25;9.25;;;;;23.98;63.92;98728.13;4969139;28;45443;-57
2023/07/15 07:15:58;;;;;;;;;12.75;10.00;;;;;24.12;63.76;98731.31;4974579;28;45362;-57
2023/07/15 07:18:25;;;;;;;;;13.50;12.00;;;;;24.22;63.64;98722.09;4970398;28;45654;-57
2023/07/15 07:20:57;;;;;;;;;11.50;10.75;;;;;24.38;63.03;98728.63;4974078;28;45576;-57
2023/07/15 07:23:23;;;;;;;;;12.40;11.20;;;;;24.54;61.55;98713.41;4971081;28;45466;-57
2023/07/15 07:25:49;;;;;;;;;13.25;11.25;;;;;24.76;61.05;98727.34;4972195;28;45429;-57
2023/07/15 07:28:14;;;;;;;;;5.50;5.50;;;;;24.95;59.00;98722.59;4971311;28;45837;-57
2023/07/15 07:30:40;;;;;;;;;10.00;10.00;;;;;25.17;57.78;98712.19;4972404;28;45869;-58
2023/07/15 07:33:06;;;;;;;;;9.60;7.40;;;;;25.40;56.89;98716.00;4973109;28;45434;-57
2023/07/15 07:35:31;;;;;;;;;13.00;10.50;;;;;25.59;56.76;98704.91;4973562;28;45394;-57
2023/07/15 07:37:57;;;;;;;;;12.00;10.00;;;;;25.82;55.36;98691.59;4969908;28;45430;-57
2023/07/15 07:40:22;;;;;;;;;10.00;9.00;;;;;26.04;53.76;98687.38;4973316;28;46121;-57
2023/07/15 07:42:47;;;;;;;;;8.00;8.00;;;;;26.23;53.21;98686.19;4970725;28;45482;-57
2023/07/15 07:45:16;;;;;;;;;6.00;4.75;;;;;26.45;52.44;98690.06;4974518;28;45357;-57
2023/07/15 07:47:42;;;;;;;;;9.50;8.25;;;;;26.63;51.83;98685.28;4975102;28;45431;-56
2023/07/15 07:50:07;;;;;;;;;8.50;8.50;;;;;26.81;52.21;98683.19;4974081;28;45463;-57
2023/07/15 07:52:33;;;;;;;;;12.75;10.75;;;;;26.95;51.88;98673.50;4975675;28;45978;-58
2023/07/15 07:54:58;;;;;;;;;12.50;11.25;;;;;27.11;51.55;98665.31;4974348;28;45368;-56
2023/07/15 07:57:24;;;;;;;;;9.75;9.75;;;;;27.25;50.54;98669.13;4976109;28;45478;-57
2023/07/15 07:59:49;;;;;;;;;9.25;9.00;;;;;27.34;50.77;98668.88;4975007;28;45402;-57
2023/07/15 08:02:15;;;;;;;;;13.00;10.50;;;;;27.43;50.09;98662.41;4976608;28;45521;-57
2023/07/15 08:04:40;;;;;;;;;9.50;9.00;;;;;27.62;48.39;98650.28;4971730;28;45534;-57
2023/07/15 08:07:06;;;;;;;;;9.00;7.00;;;;;27.83;44.60;98656.88;4976901;28;45379;-57
2023/07/15 08:09:31;;;;;;;;;7.25;6.00;;;;;28.11;42.45;98672.38;4975444;28;45327;-57
2023/07/15 08:11:58;;;;;;;;;6.25;5.75;;;;;28.40;42.27;98663.47;4976639;28;45419;-56
2023/07/15 08:14:24;;;;;;;;;6.20;6.20;;;;;28.68;41.61;98674.50;4972107;28;45652;-57
2023/07/15 08:16:50;;;;;;;;;11.00;6.50;;;;;28.88;41.38;98658.53;4975434;28;45316;-58
2023/07/15 08:19:16;;;;;;;;;8.00;6.40;;;;;29.10;40.88;98671.13;4973017;28;45471;-57
2023/07/15 08:21:41;;;;;;;;;5.50;5.50;;;;;29.25;40.12;98665.66;4975836;28;45489;-57
2023/07/15 08:24:07;;;;;;;;;5.50;5.50;;;;;29.43;39.25;98657.13;4974861;28;45795;-57
2023/07/15 08:26:32;;;;;;;;;5.00;5.00;;;;;29.57;40.31;98656.22;4970217;28;45487;-58
2023/07/15 08:28:58;;;;;;;;;7.00;7.00;;;;;29.77;38.50;98651.81;4973243;28;47251;-58
2023/07/15 08:31:24;;;;;;;;;5.75;4.75;;;;;29.92;37.89;98649.00;4976761;28;45434;-57
2023/07/15 08:33:49;;;;;;;;;6.00;6.00;;;;;30.06;37.52;98649.97;4974343;28;45565;-58
2023/07/15 08:36:15;;;;;;;;;7.50;5.75;;;;;30.22;37.27;98654.28;4976028;28;45410;-58
2023/07/15 08:38:40;;;;;;;;;6.75;6.00;;;;;30.34;36.76;98652.69;4971085;28;46005;-58
2023/07/15 08:41:07;;;;;;;;;8.25;5.50;;;;;30.42;36.55;98642.50;4976620;28;45335;-58
2023/07/15 08:43:33;;;;;;;;;6.80;6.80;;;;;30.51;36.57;98646.72;4973902;28;45418;-58
2023/07/15 08:46:02;;;;;;;;;6.00;4.75;;;;;30.62;35.42;98641.81;4976607;28;45615;-58
2023/07/15 08:48:28;;;;;;;;;6.20;4.60;;;;;30.69;35.43;98648.13;4970447;28;45487;-58
2023/07/15 08:50:57;;;;;;;;;6.60;5.20;;;;;30.83;34.02;98645.25;4976307;28;45424;-58
2023/07/15 08:53:27;;;;;;;;;6.60;6.00;;;;;30.95;35.28;98641.97;4970569;28;45375;-58
2023/07/15 08:55:56;;;;;;;;;6.75;6.00;;;;;31.03;35.70;98653.50;4975325;28;45596;-57
2023/07/15 08:58:23;;;;;;;;;7.60;7.00;;;;;31.16;34.11;98644.59;4969306;28;45406;-57
2023/07/15 09:00:50;;;;;;;;;3.60;3.60;;;;;31.24;33.15;98638.97;4990565;28;45513;-58
2023/07/15 09:03:15;;;;;;;;;7.00;7.00;;;;;31.37;32.77;98646.31;4974354;28;45315;-57
2023/07/15 09:05:41;;;;;;;;;4.50;4.50;;;;;31.45;32.08;98638.81;4976037;28;45367;-58
2023/07/15 09:08:12;;;;;;;;;6.25;5.25;;;;;31.57;32.34;98639.88;4970586;28;45542;-57
2023/07/15 09:10:50;;;;;;;;;5.00;4.80;;;;;31.69;32.39;98645.56;4987732;28;45464;-57
2023/07/15 09:13:22;;;;;;;;;5.00;5.00;;;;;31.75;31.66;98633.84;4968058;28;45378;-58
2023/07/15 09:15:48;;;;;;;;;4.75;4.75;;;;;31.80;31.47;98642.25;4975972;28;45436;-58
2023/07/15 09:18:14;;;;;;;;;8.00;6.00;;;;;31.89;31.59;98640.13;4973208;28;46473;-59
2023/07/15 09:20:40;;;;;;;;;5.00;5.00;;;;;31.95;31.13;98639.31;4974197;28;45415;-60
2023/07/15 09:23:06;;;;;;;;;7.50;6.25;;;;;32.04;31.13;98635.31;4974446;28;45306;-59
2023/07/15 09:25:31;;;;;;;;;4.25;4.25;;;;;32.08;31.53;98643.91;4975070;28;45459;-59
2023/07/15 09:27:56;;;;;;;;;7.00;5.75;;;;;32.11;31.44;98647.06;4974417;28;46271;-59
2023/07/15 09:30:22;;;;;;;;;5.50;5.50;;;;;32.15;31.38;98652.94;4975625;28;45407;-59
2023/07/15 09:32:48;;;;;;;;;6.00;6.00;;;;;32.20;31.56;98653.16;4973344;28;45445;-59
2023/07/15 09:35:16;;;;;;;;;6.00;4.50;;;;;32.20;31.20;98642.25;4971910;28;45658;-60
2023/07/15 09:37:46;;;;;;;;;7.50;6.00;;;;;32.24;31.51;98640.78;4972011;28;45514;-59
2023/07/15 09:40:12;;;;;;;;;5.40;5.00;;;;;32.24;31.41;98646.25;4975630;28;45518;-60
2023/07/15 09:43:03;;;;;;;;;6.50;5.50;;;;;32.29;31.65;98645.63;4971280;28;45433;-60
2023/07/15 09:45:32;;;;;;;;;6.20;6.20;;;;;32.25;31.56;98639.72;4958734;28;45926;-76
2023/07/15 09:47:58;;;;;;;;;6.60;6.40;;;;;32.18;31.64;98638.84;4970743;28;46013;-77
2023/07/15 09:50:25;;;;;;;;;6.75;5.75;;;;;32.20;31.13;98645.81;4972958;28;45500;-76
2023/07/15 09:52:54;;;;;;;;;4.00;4.00;;;;;32.27;30.92;98640.38;4973192;28;45473;-76
2023/07/15 09:55:22;;;;;;;;;7.25;5.50;;;;;32.38;31.71;98652.50;4971750;28;45479;-76
2023/07/15 09:57:56;;;;;;;;;7.25;6.75;;;;;32.48;30.97;98652.94;4972257;28;46416;-77
2023/07/15 10:00:23;;;;;;;;;6.20;5.40;;;;;32.55;31.05;98654.56;4971707;28;45505;-77
2023/07/15 10:02:56;;;;;;;;;6.60;6.00;;;;;32.63;30.76;98647.22;4968219;28;45429;-76
2023/07/15 10:05:22;;;;;;;;;3.25;3.25;;;;;32.66;30.85;98647.63;4972453;28;45505;-77
2023/07/15 10:07:51;;;;;;;;;6.00;6.00;;;;;32.67;30.87;98646.59;4967469;28;46688;-72
2023/07/15 10:10:19;;;;;;;;;5.60;5.60;;;;;32.62;30.68;98654.56;4970353;28;45513;-76
2023/07/15 10:12:45;;;;;;;;;4.25;4.25;;;;;32.57;30.64;98657.09;4964061;28;45475;-66
2023/07/15 10:15:11;;;;;;;;;7.00;6.75;;;;;32.66;31.04;98658.56;4985762;28;46435;-68
2023/07/15 10:17:37;;;;;;;;;8.25;5.50;;;;;32.82;31.39;98658.13;4972464;28;45536;-69
2023/07/15 10:20:10;;;;;;;;;5.60;5.60;;;;;32.96;30.85;98656.19;4973226;28;45525;-68
2023/07/15 10:22:36;;;;;;;;;5.00;5.00;;;;;33.09;31.06;98660.75;4971730;28;45406;-68
2023/07/15 10:25:04;;;;;;;;;7.00;7.00;;;;;33.18;31.09;98654.00;4973173;28;45656;-68
2023/07/15 10:27:32;;;;;;;;;7.25;6.00;;;;;33.25;30.51;98644.72;4970356;28;46954;-68
2023/07/15 10:30:16;;;;;;;;;7.00;7.00;;;;;33.31;30.44;98655.84;4971442;28;45430;-68
2023/07/15 10:33:04;;;;;;;;;8.50;5.75;;;;;33.37;29.87;98647.59;4970027;28;45417;-67
2023/07/15 10:35:39;;;;;;;;;6.00;5.50;;;;;33.43;29.93;98648.63;4963173;28;45476;-68
2023/07/15 10:38:24;;;;;;;;;7.20;6.20;;;;;33.50;29.53;98641.22;4972694;28;45445;-68
2023/07/15 10:41:04;;;;;;;;;4.40;4.00;;;;;33.65;30.23;98643.66;4971632;28;45438;-68
2023/07/15 10:43:33;;;;;;;;;7.00;7.00;;;;;33.80;29.65;98650.50;4966107;28;45575;-69
2023/07/15 10:46:01;;;;;;;;;7.00;7.00;;;;;33.97;29.17;98637.09;4972670;28;45426;-69
2023/07/15 10:48:26;;;;;;;;;5.75;5.75;;;;;34.11;30.11;98649.63;4970403;28;45481;-69
2023/07/15 10:50:52;;;;;;;;;11.00;7.00;;;;;34.23;29.06;98646.97;4972376;28;45506;-69
2023/07/15 10:53:23;;;;;;;;;7.25;7.25;;;;;34.34;28.38;98638.06;4969465;28;45476;-68
2023/07/15 10:56:03;;;;;;;;;9.75;6.50;;;;;34.44;29.03;98623.84;4986863;28;45548;-69
2023/07/15 10:58:35;;;;;;;;;7.25;6.25;;;;;34.52;28.87;98634.53;4971150;28;46170;-68
2023/07/15 11:01:05;;;;;;;;;5.00;3.20;;;;;34.59;28.42;98636.09;4970297;28;45475;-67
2023/07/15 11:03:35;;;;;;;;;5.20;5.20;;;;;34.65;28.44;98621.50;4970055;28;45550;-68
2023/07/15 11:06:01;;;;;;;;;6.00;5.00;;;;;34.68;27.03;98627.59;4965929;28;45691;-68
2023/07/15 11:08:28;;;;;;;;;5.25;5.25;;;;;34.67;27.79;98624.03;4969266;28;46612;-69
2023/07/15 11:10:57;;;;;;;;;7.40;6.60;;;;;34.65;27.75;98613.28;4973140;28;45492;-68
2023/07/15 11:13:23;;;;;;;;;7.00;5.75;;;;;34.67;28.50;98607.59;4966749;28;45589;-69
2023/07/15 11:15:48;;;;;;;;;6.00;4.00;;;;;34.69;26.63;98599.97;4970738;28;45413;-69
2023/07/15 11:18:20;;;;;;;;;4.25;1.25;;;;;34.73;27.18;98600.34;4969177;28;48231;-67
2023/07/15 11:20:48;;;;;;;;;8.20;6.60;;;;;34.76;27.49;98603.47;4972623;28;45693;-68
2023/07/15 11:23:14;;;;;;;;;6.60;6.60;;;;;34.82;26.36;98599.84;4971365;28;45478;-68
2023/07/15 11:25:40;;;;;;;;;5.25;4.50;;;;;34.88;27.55;98595.34;4971977;28;45500;-68
2023/07/15 11:28:06;;;;;;;;;5.00;4.25;;;;;34.93;27.24;98595.50;4969244;28;45495;-68